createdAt,value
2022-10-09T00:01:05.902Z,13.82
2022-10-09T00:03:33.931Z,14.73
2022-10-09T00:06:01.014Z,13.77
2022-10-09T00:08:28.247Z,13.23
2022-10-09T00:10:55.453Z,12.43
2022-10-09T00:13:22.973Z,12.25
2022-10-09T00:15:49.944Z,11.98
2022-10-09T00:18:18.798Z,12.32
2022-10-09T00:20:47.314Z,11.25
2022-10-09T00:23:17.323Z,11.82
2022-10-09T00:25:58.785Z,11.60
2022-10-09T00:28:27.291Z,13.32
2022-10-09T00:30:54.701Z,14.05
2022-10-09T00:33:21.895Z,14.75
2022-10-09T00:35:49.479Z,15.85
2022-10-09T00:38:16.767Z,17.95
2022-10-09T00:40:43.867Z,14.40
2022-10-09T00:43:17.684Z,12.45
2022-10-09T00:45:50.141Z,13.50
2022-10-09T00:48:18.768Z,12.85
2022-10-09T00:50:52.367Z,12.93
2022-10-09T00:53:22.353Z,13.27
2022-10-09T00:55:50.093Z,12.80
2022-10-09T00:58:17.196Z,12.95
2022-10-09T01:00:44.092Z,12.02
2022-10-09T01:03:11.312Z,20.98
2022-10-09T01:06:18.651Z,18.45
2022-10-09T01:09:01.094Z,14.13
2022-10-09T01:11:33.312Z,15.98
2022-10-09T01:14:20.172Z,15.43
2022-10-09T01:17:24.868Z,18.42
2022-10-09T01:20:29.142Z,17.48
2022-10-09T01:23:29.857Z,14.18
2022-10-09T01:26:11.017Z,16.30
2022-10-09T01:28:41.870Z,15.93
2022-10-09T01:31:11.482Z,13.70
2022-10-09T01:33:39.609Z,12.00
2022-10-09T01:36:08.633Z,12.63
2022-10-09T01:38:37.908Z,12.80
2022-10-09T01:41:07.429Z,13.40
2022-10-09T01:43:34.777Z,14.10
2022-10-09T01:46:28.450Z,12.98
2022-10-09T01:49:26.441Z,11.60
2022-10-09T01:52:08.353Z,11.93
2022-10-09T01:54:44.065Z,11.02
2022-10-09T01:57:14.583Z,11.18
2022-10-09T01:59:45.012Z,10.88
2022-10-09T02:02:12.409Z,11.25
2022-10-09T02:04:43.425Z,10.88
2022-10-09T02:07:10.714Z,11.10
2022-10-09T02:09:39.879Z,12.15
2022-10-09T02:12:11.356Z,11.05
2022-10-09T02:14:39.654Z,12.20
2022-10-09T02:17:11.853Z,11.35
2022-10-09T02:19:48.053Z,12.13
2022-10-09T02:22:26.224Z,11.88
2022-10-09T02:24:53.703Z,12.20
2022-10-09T02:27:22.063Z,12.85
2022-10-09T02:29:49.595Z,12.50
2022-10-09T02:32:17.180Z,11.60
2022-10-09T02:34:44.485Z,12.60
2022-10-09T02:37:11.530Z,13.50
2022-10-09T02:39:38.429Z,12.82
2022-10-09T02:42:05.598Z,11.98
2022-10-09T02:44:32.491Z,12.90
2022-10-09T02:46:59.508Z,12.77
2022-10-09T02:49:26.428Z,12.35
2022-10-09T02:51:53.396Z,12.23
2022-10-09T02:54:20.341Z,13.10
2022-10-09T02:56:47.261Z,13.25
2022-10-09T02:59:14.257Z,13.13
2022-10-09T03:01:41.234Z,11.52
2022-10-09T03:04:08.180Z,12.80
2022-10-09T03:06:35.186Z,12.63
2022-10-09T03:09:02.137Z,12.45
2022-10-09T03:11:29.169Z,12.00
2022-10-09T03:13:56.330Z,12.52
2022-10-09T03:16:25.554Z,12.30
2022-10-09T03:18:53.280Z,12.18
2022-10-09T03:21:27.837Z,12.48
2022-10-09T03:23:55.262Z,12.77
2022-10-09T03:26:26.030Z,13.32
2022-10-09T03:28:54.158Z,12.30
2022-10-09T03:31:50.055Z,12.55
2022-10-09T03:34:12.101Z,12.18
2022-10-09T03:36:39.320Z,11.65
2022-10-09T03:39:06.191Z,12.68
2022-10-09T03:41:33.082Z,12.30
2022-10-09T03:44:00.089Z,11.57
2022-10-09T03:46:27.141Z,11.90
2022-10-09T03:48:54.116Z,11.70
2022-10-09T03:51:21.303Z,11.73
2022-10-09T03:53:48.192Z,11.98
2022-10-09T03:56:15.101Z,12.27
2022-10-09T03:58:42.099Z,13.55
2022-10-09T04:01:09.172Z,14.15
2022-10-09T04:03:36.095Z,12.27
2022-10-09T04:06:03.853Z,14.25
2022-10-09T04:08:30.716Z,13.93
2022-10-09T04:11:01.202Z,13.65
2022-10-09T04:13:28.606Z,13.02
2022-10-09T04:15:56.582Z,14.43
2022-10-09T04:18:23.705Z,13.82
2022-10-09T04:20:55.119Z,13.63
2022-10-09T04:23:26.795Z,14.48
2022-10-09T04:25:55.484Z,13.90
2022-10-09T04:28:23.746Z,13.70
2022-10-09T04:30:51.858Z,13.95
2022-10-09T04:33:19.270Z,13.57
2022-10-09T04:35:49.571Z,13.60
2022-10-09T04:38:16.597Z,12.57
2022-10-09T04:40:43.676Z,14.25
2022-10-09T04:43:10.638Z,14.77
2022-10-09T04:45:41.343Z,14.13
2022-10-09T04:48:08.532Z,14.73
2022-10-09T04:50:39.405Z,13.70
2022-10-09T04:53:06.358Z,15.13
2022-10-09T04:55:33.296Z,14.93
2022-10-09T04:58:00.191Z,14.20
2022-10-09T05:00:27.295Z,12.60
2022-10-09T05:02:54.196Z,13.40
2022-10-09T05:05:21.133Z,14.27
2022-10-09T05:07:48.116Z,15.30
2022-10-09T05:10:15.087Z,22.25
2022-10-09T05:12:42.032Z,17.52
2022-10-09T05:15:09.347Z,20.25
2022-10-09T05:17:36.452Z,16.40
2022-10-09T05:20:03.710Z,15.98
2022-10-09T05:22:30.647Z,14.82
2022-10-09T05:24:57.549Z,13.38
2022-10-09T05:27:24.530Z,12.27
2022-10-09T05:29:51.451Z,12.30
2022-10-09T05:32:18.330Z,11.57
2022-10-09T05:34:45.258Z,11.18
2022-10-09T05:37:12.175Z,11.57
2022-10-09T05:39:39.646Z,11.57
2022-10-09T05:42:06.535Z,11.38
2022-10-09T05:44:33.488Z,11.48
2022-10-09T05:47:00.445Z,10.40
2022-10-09T05:49:27.420Z,10.90
2022-10-09T05:51:56.034Z,12.70
2022-10-09T05:54:23.151Z,12.75
2022-10-09T05:56:50.179Z,12.60
2022-10-09T05:59:22.220Z,12.43
2022-10-09T06:01:51.743Z,11.88
2022-10-09T06:04:21.741Z,11.05
2022-10-09T06:06:49.713Z,11.68
2022-10-09T06:09:19.479Z,11.00
2022-10-09T06:11:46.577Z,11.30
2022-10-09T06:14:13.922Z,13.10
2022-10-09T06:16:43.669Z,14.68
2022-10-09T06:19:12.872Z,12.60
2022-10-09T06:21:40.157Z,12.75
2022-10-09T06:24:07.504Z,13.13
2022-10-09T06:26:34.661Z,11.57
2022-10-09T06:29:03.220Z,10.82
2022-10-09T06:31:32.755Z,11.82
2022-10-09T06:34:01.846Z,11.85
2022-10-09T06:36:32.184Z,11.82
2022-10-09T06:39:00.715Z,9.98
2022-10-09T06:41:29.223Z,10.98
2022-10-09T06:43:58.405Z,11.30
2022-10-09T06:46:31.899Z,10.60
2022-10-09T06:49:00.588Z,11.43
2022-10-09T06:51:29.184Z,11.43
2022-10-09T06:53:59.710Z,11.88
2022-10-09T06:56:29.271Z,11.00
2022-10-09T06:58:56.904Z,10.52
2022-10-09T07:01:27.179Z,11.70
2022-10-09T07:03:56.594Z,11.10
2022-10-09T07:06:26.389Z,11.68
2022-10-09T07:08:57.673Z,11.43
2022-10-09T07:11:33.243Z,11.23
2022-10-09T07:14:02.786Z,11.68
2022-10-09T07:16:35.040Z,11.77
2022-10-09T07:19:06.555Z,11.30
2022-10-09T07:21:34.970Z,11.57
2022-10-09T07:24:03.002Z,10.82
2022-10-09T07:26:31.551Z,11.05
2022-10-09T07:28:59.233Z,11.10
2022-10-09T07:31:26.250Z,11.50
2022-10-09T07:33:56.608Z,11.50
2022-10-09T07:36:24.347Z,11.38
2022-10-09T07:38:53.605Z,11.82
2022-10-09T07:41:22.288Z,11.30
2022-10-09T07:43:49.669Z,11.75
2022-10-09T07:46:19.323Z,11.93
2022-10-09T07:48:49.562Z,11.57
2022-10-09T07:51:25.904Z,11.35
2022-10-09T07:53:53.783Z,12.10
2022-10-09T07:56:29.313Z,11.60
2022-10-09T07:58:59.270Z,11.60
2022-10-09T08:01:28.265Z,11.30
2022-10-09T08:03:56.019Z,12.55
2022-10-09T08:06:23.129Z,10.57
2022-10-09T08:08:52.024Z,12.35
2022-10-09T08:11:20.363Z,11.80
2022-10-09T08:13:48.827Z,11.98
2022-10-09T08:16:16.507Z,12.27
2022-10-09T08:18:43.581Z,12.18
2022-10-09T08:21:15.607Z,11.23
2022-10-09T08:23:42.703Z,11.65
2022-10-09T08:26:18.702Z,11.60
2022-10-09T08:28:51.611Z,11.30
2022-10-09T08:31:18.955Z,11.70
2022-10-09T08:33:46.166Z,35.08
2022-10-09T08:36:15.419Z,16.65
2022-10-09T08:38:47.900Z,13.52
2022-10-09T08:41:42.228Z,12.50
2022-10-09T08:44:24.287Z,13.43
2022-10-09T08:47:06.985Z,11.82
2022-10-09T08:49:53.131Z,12.68
2022-10-09T08:52:29.269Z,11.43
2022-10-09T08:54:59.411Z,11.13
2022-10-09T08:57:30.673Z,14.52
2022-10-09T08:59:57.658Z,12.45
2022-10-09T09:02:24.544Z,13.60
2022-10-09T09:05:12.859Z,13.00
2022-10-09T09:08:12.706Z,11.98
2022-10-09T09:11:10.508Z,13.40
2022-10-09T09:13:43.481Z,15.05
2022-10-09T09:16:16.202Z,16.15
2022-10-09T09:19:08.326Z,15.55
2022-10-09T09:21:53.891Z,16.08
2022-10-09T09:24:28.002Z,15.63
2022-10-09T09:27:00.732Z,13.93
2022-10-09T09:29:31.646Z,12.93
2022-10-09T09:32:01.385Z,13.20
2022-10-09T09:34:41.115Z,14.15
2022-10-09T09:37:10.857Z,13.45
2022-10-09T09:42:29.863Z,16.50
2022-10-09T09:45:07.158Z,14.00
2022-10-09T09:47:40.023Z,12.35
2022-10-09T09:50:18.485Z,11.63
2022-10-09T09:52:55.941Z,10.05
2022-10-09T09:55:27.606Z,11.07
2022-10-09T09:58:01.971Z,10.80
2022-10-09T10:00:29.270Z,12.25
2022-10-09T10:03:13.029Z,13.30
2022-10-09T10:05:41.550Z,11.57
2022-10-09T10:08:32.243Z,11.60
2022-10-09T10:11:01.499Z,10.68
2022-10-09T10:13:45.892Z,10.00
2022-10-09T10:16:24.976Z,9.20
2022-10-09T10:18:53.338Z,8.98
2022-10-09T10:21:21.325Z,11.05
2022-10-09T10:26:37.232Z,9.32
2022-10-09T10:29:12.943Z,10.13
2022-10-09T10:32:10.650Z,11.48
2022-10-09T10:34:40.875Z,9.93
2022-10-09T10:37:13.813Z,7.88
2022-10-09T10:39:47.158Z,7.72
2022-10-09T10:42:25.168Z,7.45
2022-10-09T10:45:04.252Z,8.57
2022-10-09T10:47:36.947Z,8.00
2022-10-09T10:50:04.246Z,10.23
2022-10-09T10:52:40.644Z,8.73
2022-10-09T10:55:15.858Z,9.00
2022-10-09T10:57:59.065Z,7.88
2022-10-09T11:00:28.355Z,7.97
2022-10-09T11:03:21.765Z,9.95
2022-10-09T11:06:01.626Z,8.13
2022-10-09T11:08:40.582Z,8.05
2022-10-09T11:11:27.048Z,8.27
2022-10-09T11:14:11.509Z,8.48
2022-10-09T11:16:47.792Z,7.43
2022-10-09T11:19:33.600Z,7.90
2022-10-09T11:22:15.124Z,7.53
2022-10-09T11:25:20.507Z,6.75
2022-10-09T11:27:52.855Z,8.88
2022-10-09T11:30:20.130Z,7.35
2022-10-09T11:33:12.736Z,7.07
2022-10-09T11:35:55.637Z,7.63
2022-10-09T11:39:04.094Z,7.47
2022-10-09T11:41:31.563Z,7.47
2022-10-09T11:44:23.185Z,6.95
2022-10-09T11:47:02.181Z,7.38
2022-10-09T11:49:50.561Z,7.60
2022-10-09T11:52:38.143Z,7.18
2022-10-09T11:55:27.665Z,7.50
2022-10-09T11:57:55.096Z,5.88
2022-10-09T12:00:33.884Z,6.30
2022-10-09T12:03:03.893Z,7.07
2022-10-09T12:05:40.446Z,7.13
2022-10-09T12:10:53.983Z,5.88
2022-10-09T12:13:39.260Z,5.88
2022-10-09T12:16:09.164Z,6.75
2022-10-09T12:18:39.343Z,5.88
2022-10-09T12:21:23.464Z,5.78
2022-10-09T12:23:51.824Z,6.40
2022-10-09T12:26:22.023Z,5.82
2022-10-09T12:28:52.447Z,6.43
2022-10-09T12:31:34.192Z,6.32
2022-10-09T12:34:06.095Z,5.85
2022-10-09T12:36:34.266Z,6.10
2022-10-09T12:39:16.080Z,5.82
2022-10-09T12:41:46.711Z,5.10
2022-10-09T12:44:38.763Z,5.28
2022-10-09T12:47:13.317Z,5.65
2022-10-09T12:49:40.432Z,4.50
2022-10-09T12:52:16.502Z,4.72
2022-10-09T12:54:45.046Z,3.47
2022-10-09T12:57:15.974Z,3.65
2022-10-09T12:59:45.521Z,4.20
2022-10-09T13:02:20.509Z,5.00
2022-10-09T13:05:02.323Z,5.32
2022-10-09T13:07:32.507Z,5.93
2022-10-09T13:10:18.894Z,5.68
2022-10-09T13:12:52.012Z,6.10
2022-10-09T13:15:35.178Z,6.22
2022-10-09T13:18:20.055Z,7.03
2022-10-09T13:20:57.959Z,7.18
2022-10-09T13:23:34.333Z,7.35
2022-10-09T13:26:04.560Z,7.57
2022-10-09T13:28:32.388Z,7.63
2022-10-09T13:31:07.868Z,7.80
2022-10-09T13:33:34.989Z,8.38
2022-10-09T13:36:01.917Z,9.38
2022-10-09T13:38:32.654Z,8.15
2022-10-09T13:41:02.374Z,9.02
2022-10-09T13:43:31.199Z,9.98
2022-10-09T13:45:59.354Z,10.35
2022-10-09T13:48:26.585Z,8.75
2022-10-09T13:50:53.865Z,9.15
2022-10-09T13:53:20.783Z,9.35
2022-10-09T13:55:47.787Z,9.82
2022-10-09T13:58:14.691Z,9.35
2022-10-09T14:00:44.995Z,11.43
2022-10-09T14:03:12.043Z,10.80
2022-10-09T14:05:38.935Z,9.48
2022-10-09T14:08:06.479Z,10.07
2022-10-09T14:10:33.512Z,10.02
2022-10-09T14:13:00.473Z,9.13
2022-10-09T14:15:27.574Z,9.52
2022-10-09T14:17:55.299Z,10.50
2022-10-09T14:20:25.211Z,10.68
2022-10-09T14:22:52.438Z,10.60
2022-10-09T14:25:19.471Z,12.38
2022-10-09T14:27:46.710Z,12.45
2022-10-09T14:30:13.883Z,12.18
2022-10-09T14:32:40.758Z,10.73
2022-10-09T14:35:08.093Z,11.27
2022-10-09T14:37:41.510Z,12.20
2022-10-09T14:40:10.618Z,13.07
2022-10-09T14:42:39.150Z,11.73
2022-10-09T14:45:07.084Z,11.30
2022-10-09T14:47:34.076Z,12.77
2022-10-09T14:50:01.460Z,11.98
2022-10-09T14:52:28.374Z,12.77
2022-10-09T14:54:55.501Z,13.70
2022-10-09T14:57:22.400Z,11.52
2022-10-09T14:59:49.366Z,11.82
2022-10-09T15:02:17.407Z,12.13
2022-10-09T15:04:44.952Z,12.90
2022-10-09T15:07:11.866Z,11.93
2022-10-09T15:09:41.242Z,11.63
2022-10-09T15:12:08.160Z,13.05
2022-10-09T15:14:35.159Z,13.48
2022-10-09T15:17:02.138Z,11.70
2022-10-09T15:19:29.171Z,11.60
2022-10-09T15:21:56.079Z,11.82
2022-10-09T15:24:23.076Z,11.60
2022-10-09T15:26:50.031Z,11.40
2022-10-09T15:29:17.014Z,12.40
2022-10-09T15:31:44.269Z,12.07
2022-10-09T15:34:17.637Z,12.57
2022-10-09T15:36:46.945Z,12.90
2022-10-09T15:39:14.047Z,12.30
2022-10-09T15:41:43.364Z,12.52
2022-10-09T15:44:18.952Z,11.82
2022-10-09T15:46:49.311Z,11.88
2022-10-09T15:49:16.798Z,14.20
2022-10-09T15:51:44.144Z,14.15
2022-10-09T15:54:12.614Z,14.00
2022-10-09T15:56:41.471Z,14.65
2022-10-09T15:59:12.778Z,15.02
2022-10-09T16:01:40.960Z,14.85
2022-10-09T16:04:08.204Z,14.65
2022-10-09T16:06:35.783Z,15.90
2022-10-09T16:09:04.623Z,14.85
2022-10-09T16:11:32.159Z,14.82
2022-10-09T16:13:59.418Z,15.20
2022-10-09T16:16:28.381Z,15.57
2022-10-09T16:18:56.086Z,15.90
2022-10-09T16:21:26.206Z,16.00
2022-10-09T16:23:58.154Z,16.80
2022-10-09T16:26:26.812Z,16.38
2022-10-09T16:28:54.317Z,17.58
2022-10-09T16:31:24.295Z,16.40
2022-10-09T16:33:51.861Z,18.55
2022-10-09T16:36:19.927Z,21.00
2022-10-09T16:38:46.946Z,23.45
2022-10-09T16:41:18.056Z,22.42
2022-10-09T16:43:47.274Z,23.15
2022-10-09T16:46:19.077Z,33.38
2022-10-09T16:48:47.542Z,23.50
2022-10-09T16:51:17.426Z,25.30
2022-10-09T16:53:48.728Z,23.92
2022-10-09T16:56:20.092Z,30.52
2022-10-09T16:58:47.939Z,29.00
2022-10-09T17:01:15.959Z,27.98
2022-10-09T17:03:43.223Z,25.55
2022-10-09T17:06:16.604Z,24.35
2022-10-09T17:08:43.907Z,17.52
2022-10-09T17:11:13.446Z,20.45
2022-10-09T17:13:41.337Z,16.92
2022-10-09T17:16:14.427Z,17.33
2022-10-09T17:18:45.406Z,17.75
2022-10-09T17:21:13.391Z,16.40
2022-10-09T17:23:41.475Z,16.17
2022-10-09T17:26:14.502Z,17.30
2022-10-09T17:28:42.352Z,16.60
2022-10-09T17:31:16.891Z,16.27
2022-10-09T17:33:47.128Z,17.30
2022-10-09T17:36:19.744Z,19.70
2022-10-09T17:38:48.308Z,17.95
2022-10-09T17:41:19.212Z,16.08
2022-10-09T17:43:46.907Z,15.60
2022-10-09T17:46:15.080Z,16.75
2022-10-09T17:48:46.390Z,17.65
2022-10-09T17:51:21.551Z,15.95
2022-10-09T17:53:49.364Z,15.02
2022-10-09T17:56:16.635Z,16.42
2022-10-09T17:58:45.112Z,15.25
2022-10-09T18:01:12.500Z,15.93
2022-10-09T18:03:40.669Z,15.70
2022-10-09T18:06:10.000Z,15.63
2022-10-09T18:08:37.221Z,16.35
2022-10-09T18:11:08.005Z,16.77
2022-10-09T18:13:38.168Z,18.33
2022-10-09T18:16:11.256Z,16.60
2022-10-09T18:18:39.795Z,18.00
2022-10-09T18:21:11.814Z,17.63
2022-10-09T18:23:39.076Z,17.80
2022-10-09T18:26:11.413Z,17.40
2022-10-09T18:28:39.233Z,19.02
2022-10-09T18:31:13.028Z,23.25
2022-10-09T18:33:40.844Z,21.48
2022-10-09T18:36:14.151Z,21.50
2022-10-09T18:38:41.442Z,22.80
2022-10-09T18:41:09.402Z,24.83
2022-10-09T18:43:37.085Z,23.98
2022-10-09T18:46:04.133Z,30.02
2022-10-09T18:48:36.988Z,295.02
2022-10-09T18:51:06.890Z,328.95
2022-10-09T18:53:37.257Z,316.10
2022-10-09T18:56:07.271Z,410.55
2022-10-09T18:58:34.950Z,379.75
2022-10-09T19:01:05.468Z,379.08
2022-10-09T19:03:36.812Z,319.85
2022-10-09T19:06:04.979Z,192.98
2022-10-09T19:08:32.361Z,55.38
2022-10-09T19:10:59.618Z,38.63
2022-10-09T19:13:27.259Z,136.48
2022-10-09T19:15:58.352Z,125.43
2022-10-09T19:18:27.419Z,65.65
2022-10-09T19:20:54.471Z,52.83
2022-10-09T19:23:21.780Z,38.85
2022-10-09T19:25:50.400Z,30.63
2022-10-09T19:28:18.097Z,95.47
2022-10-09T19:30:46.186Z,130.35
2022-10-09T19:33:13.997Z,66.22
2022-10-09T19:35:48.818Z,19.98
2022-10-09T19:38:16.643Z,36.97
2022-10-09T19:40:44.291Z,23.48
2022-10-09T19:43:12.140Z,24.40
2022-10-09T19:45:39.241Z,36.35
2022-10-09T19:48:06.543Z,51.67
2022-10-09T19:50:33.701Z,37.60
2022-10-09T19:53:03.404Z,31.60
2022-10-09T19:55:33.381Z,35.03
2022-10-09T19:58:00.723Z,37.78
2022-10-09T20:00:27.923Z,30.95
2022-10-09T20:02:56.650Z,25.92
2022-10-09T20:05:23.961Z,23.15
2022-10-09T20:07:51.004Z,23.95
2022-10-09T20:10:18.856Z,23.73
2022-10-09T20:12:45.841Z,21.98
2022-10-09T20:15:13.522Z,22.17
2022-10-09T20:17:40.961Z,22.40
2022-10-09T20:20:08.660Z,22.55
2022-10-09T20:22:35.568Z,20.88
2022-10-09T20:25:03.704Z,21.27
2022-10-09T20:27:31.140Z,22.40
2022-10-09T20:29:58.278Z,20.65
2022-10-09T20:32:25.849Z,20.48
2022-10-09T20:34:53.838Z,19.63
2022-10-09T20:37:20.787Z,18.73
2022-10-09T20:39:49.456Z,16.42
2022-10-09T20:42:16.481Z,15.98
2022-10-09T20:44:43.827Z,18.60
2022-10-09T20:47:11.014Z,18.13
2022-10-09T20:49:38.168Z,18.15
2022-10-09T20:52:05.338Z,18.42
2022-10-09T20:54:33.214Z,17.92
2022-10-09T20:57:00.207Z,17.13
2022-10-09T20:59:27.518Z,20.35
2022-10-09T21:01:54.463Z,16.42
2022-10-09T21:04:21.468Z,19.42
2022-10-09T21:06:48.412Z,16.85
2022-10-09T21:09:16.175Z,18.27
2022-10-09T21:11:45.881Z,17.48
2022-10-09T21:14:14.435Z,22.13
2022-10-09T21:16:41.326Z,34.40
2022-10-09T21:19:11.070Z,52.08
2022-10-09T21:21:39.044Z,34.30
2022-10-09T21:24:06.948Z,36.28
2022-10-09T21:26:39.585Z,30.02
2022-10-09T21:29:07.152Z,27.00
2022-10-09T21:31:34.324Z,27.77
2022-10-09T21:34:02.427Z,30.88
2022-10-09T21:37:02.305Z,21.48
2022-10-09T21:39:31.327Z,26.48
2022-10-09T21:41:58.283Z,24.50
2022-10-09T21:44:25.560Z,25.50
2022-10-09T21:46:52.881Z,27.85
2022-10-09T21:49:24.196Z,25.77
2022-10-09T21:51:51.902Z,23.50
2022-10-09T21:54:19.295Z,24.20
2022-10-09T21:56:46.790Z,25.77
2022-10-09T21:59:13.929Z,24.83
2022-10-09T22:01:41.323Z,26.67
2022-10-09T22:04:08.686Z,26.25
2022-10-09T22:06:35.649Z,25.13
2022-10-09T22:09:03.019Z,25.15
2022-10-09T22:11:30.305Z,23.40
2022-10-09T22:13:57.332Z,20.10
2022-10-09T22:16:25.439Z,18.65
2022-10-09T22:18:52.912Z,18.80
2022-10-09T22:21:20.228Z,17.40
2022-10-09T22:23:47.513Z,16.85
2022-10-09T22:26:18.151Z,15.77
2022-10-09T22:28:46.751Z,16.08
2022-10-09T22:31:25.884Z,16.38
2022-10-09T22:33:58.867Z,16.85
2022-10-09T22:36:29.667Z,16.88
2022-10-09T22:38:58.666Z,15.80
2022-10-09T22:41:27.465Z,16.27
2022-10-09T22:43:56.336Z,17.05
2022-10-09T22:46:26.606Z,16.45
2022-10-09T22:48:54.161Z,17.40
2022-10-09T22:51:22.932Z,17.95
2022-10-09T22:53:50.534Z,25.00
2022-10-09T22:56:20.662Z,33.67
2022-10-09T22:58:49.518Z,48.78
2022-10-09T23:01:20.632Z,34.25
2022-10-09T23:03:48.500Z,26.98
2022-10-09T23:06:18.197Z,22.83
2022-10-09T23:08:47.759Z,24.95
2022-10-09T23:11:16.269Z,25.48
2022-10-09T23:13:43.741Z,27.45
2022-10-09T23:16:12.900Z,23.67
2022-10-09T23:18:41.471Z,19.58
2022-10-09T23:21:12.006Z,22.10
2022-10-09T23:23:39.566Z,23.90
2022-10-09T23:26:09.730Z,26.73
2022-10-09T23:28:37.264Z,20.90
2022-10-09T23:31:06.931Z,24.27
2022-10-09T23:33:34.858Z,20.48
2022-10-09T23:36:03.264Z,24.08
2022-10-09T23:38:31.176Z,23.58
2022-10-09T23:41:00.598Z,24.65
2022-10-09T23:43:30.236Z,37.65
2022-10-09T23:45:59.333Z,33.45
2022-10-09T23:48:27.992Z,38.60
2022-10-09T23:50:56.384Z,43.60
2022-10-09T23:53:26.116Z,49.38
2022-10-09T23:55:54.707Z,53.00
2022-10-09T23:58:22.353Z,38.05
